sensor_id;sensor_type;location;lat;lon;timestamp;P1;durP1;ratioP1;P2;durP2;ratioP2
41219;SDS011;26951;47.338;9.196;2023-01-29T00:00:12;24.05;;;13.20;;
41219;SDS011;26951;47.338;9.196;2023-01-29T00:02:56;26.83;;;14.20;;
41219;SDS011;26951;47.338;9.196;2023-01-29T00:05:41;27.00;;;14.35;;
41219;SDS011;26951;47.338;9.196;2023-01-29T00:08:25;25.70;;;14.35;;
41219;SDS011;26951;47.338;9.196;2023-01-29T00:11:09;25.65;;;14.55;;
41219;SDS011;26951;47.338;9.196;2023-01-29T00:13:53;28.33;;;14.35;;
41219;SDS011;26951;47.338;9.196;2023-01-29T00:16:38;26.47;;;15.37;;
41219;SDS011;26951;47.338;9.196;2023-01-29T00:19:23;25.63;;;13.75;;
41219;SDS011;26951;47.338;9.196;2023-01-29T00:22:06;27.42;;;16.77;;
41219;SDS011;26951;47.338;9.196;2023-01-29T00:24:51;26.27;;;15.40;;
41219;SDS011;26951;47.338;9.196;2023-01-29T00:27:35;28.35;;;16.00;;
41219;SDS011;26951;47.338;9.196;2023-01-29T00:30:20;23.20;;;14.23;;
41219;SDS011;26951;47.338;9.196;2023-01-29T00:33:04;26.45;;;14.98;;
41219;SDS011;26951;47.338;9.196;2023-01-29T00:35:48;26.33;;;14.35;;
41219;SDS011;26951;47.338;9.196;2023-01-29T00:38:32;27.80;;;15.45;;
41219;SDS011;26951;47.338;9.196;2023-01-29T00:41:17;28.20;;;14.95;;
41219;SDS011;26951;47.338;9.196;2023-01-29T00:44:20;26.90;;;15.40;;
41219;SDS011;26951;47.338;9.196;2023-01-29T00:47:23;29.05;;;15.50;;
41219;SDS011;26951;47.338;9.196;2023-01-29T00:50:16;24.63;;;14.85;;
41219;SDS011;26951;47.338;9.196;2023-01-29T00:53:00;27.75;;;14.98;;
41219;SDS011;26951;47.338;9.196;2023-01-29T00:55:44;28.02;;;14.50;;
41219;SDS011;26951;47.338;9.196;2023-01-29T00:58:28;27.67;;;14.82;;
41219;SDS011;26951;47.338;9.196;2023-01-29T01:01:17;26.83;;;15.32;;
41219;SDS011;26951;47.338;9.196;2023-01-29T01:04:21;28.55;;;15.27;;
41219;SDS011;26951;47.338;9.196;2023-01-29T01:07:05;27.27;;;15.98;;
41219;SDS011;26951;47.338;9.196;2023-01-29T01:09:50;23.60;;;14.30;;
41219;SDS011;26951;47.338;9.196;2023-01-29T01:13:03;24.42;;;14.68;;
41219;SDS011;26951;47.338;9.196;2023-01-29T01:15:48;26.77;;;16.60;;
41219;SDS011;26951;47.338;9.196;2023-01-29T01:18:32;28.17;;;16.10;;
41219;SDS011;26951;47.338;9.196;2023-01-29T01:21:16;25.27;;;14.68;;
41219;SDS011;26951;47.338;9.196;2023-01-29T01:24:01;25.65;;;14.70;;
41219;SDS011;26951;47.338;9.196;2023-01-29T01:26:48;26.05;;;14.65;;
41219;SDS011;26951;47.338;9.196;2023-01-29T01:29:32;23.30;;;14.75;;
41219;SDS011;26951;47.338;9.196;2023-01-29T01:32:16;23.55;;;13.32;;
41219;SDS011;26951;47.338;9.196;2023-01-29T01:35:01;24.38;;;13.65;;
41219;SDS011;26951;47.338;9.196;2023-01-29T01:37:45;24.88;;;14.48;;
41219;SDS011;26951;47.338;9.196;2023-01-29T01:40:29;21.58;;;14.73;;
41219;SDS011;26951;47.338;9.196;2023-01-29T01:43:14;24.42;;;14.43;;
41219;SDS011;26951;47.338;9.196;2023-01-29T01:45:58;22.38;;;12.13;;
41219;SDS011;26951;47.338;9.196;2023-01-29T01:48:42;23.30;;;12.55;;
41219;SDS011;26951;47.338;9.196;2023-01-29T01:51:29;25.63;;;14.75;;
41219;SDS011;26951;47.338;9.196;2023-01-29T01:54:17;25.77;;;14.48;;
41219;SDS011;26951;47.338;9.196;2023-01-29T01:57:06;26.65;;;14.60;;
41219;SDS011;26951;47.338;9.196;2023-01-29T02:00:03;23.30;;;14.10;;
41219;SDS011;26951;47.338;9.196;2023-01-29T02:02:56;24.52;;;14.02;;
41219;SDS011;26951;47.338;9.196;2023-01-29T02:06:01;22.70;;;13.07;;
41219;SDS011;26951;47.338;9.196;2023-01-29T02:09:05;22.35;;;13.35;;
41219;SDS011;26951;47.338;9.196;2023-01-29T02:12:13;23.02;;;14.82;;
41219;SDS011;26951;47.338;9.196;2023-01-29T02:17:43;26.30;;;15.10;;
41219;SDS011;26951;47.338;9.196;2023-01-29T02:20:30;28.10;;;15.75;;
41219;SDS011;26951;47.338;9.196;2023-01-29T02:23:20;26.60;;;16.80;;
41219;SDS011;26951;47.338;9.196;2023-01-29T02:26:32;24.70;;;15.13;;
41219;SDS011;26951;47.338;9.196;2023-01-29T02:32:58;27.77;;;15.68;;
41219;SDS011;26951;47.338;9.196;2023-01-29T02:38:59;25.33;;;15.38;;
41219;SDS011;26951;47.338;9.196;2023-01-29T02:48:35;23.90;;;13.82;;
41219;SDS011;26951;47.338;9.196;2023-01-29T02:51:30;28.35;;;15.00;;
41219;SDS011;26951;47.338;9.196;2023-01-29T02:57:26;27.50;;;15.98;;
41219;SDS011;26951;47.338;9.196;2023-01-29T03:00:16;24.42;;;14.23;;
41219;SDS011;26951;47.338;9.196;2023-01-29T03:03:06;28.85;;;15.75;;
41219;SDS011;26951;47.338;9.196;2023-01-29T03:09:01;28.83;;;15.82;;
41219;SDS011;26951;47.338;9.196;2023-01-29T03:11:51;25.98;;;14.25;;
41219;SDS011;26951;47.338;9.196;2023-01-29T03:14:38;22.33;;;13.38;;
41219;SDS011;26951;47.338;9.196;2023-01-29T03:17:49;23.40;;;13.57;;
41219;SDS011;26951;47.338;9.196;2023-01-29T03:20:42;24.20;;;13.40;;
41219;SDS011;26951;47.338;9.196;2023-01-29T03:23:31;27.10;;;14.63;;
41219;SDS011;26951;47.338;9.196;2023-01-29T03:26:36;21.45;;;13.35;;
41219;SDS011;26951;47.338;9.196;2023-01-29T03:29:40;19.83;;;12.65;;
41219;SDS011;26951;47.338;9.196;2023-01-29T03:32:45;23.52;;;13.48;;
41219;SDS011;26951;47.338;9.196;2023-01-29T03:38:19;22.02;;;12.77;;
41219;SDS011;26951;47.338;9.196;2023-01-29T03:41:08;25.77;;;14.75;;
41219;SDS011;26951;47.338;9.196;2023-01-29T03:44:11;27.08;;;14.27;;
41219;SDS011;26951;47.338;9.196;2023-01-29T03:47:17;22.83;;;12.80;;
41219;SDS011;26951;47.338;9.196;2023-01-29T03:50:06;23.10;;;13.27;;
41219;SDS011;26951;47.338;9.196;2023-01-29T03:53:16;24.40;;;12.50;;
41219;SDS011;26951;47.338;9.196;2023-01-29T03:56:15;21.98;;;13.52;;
41219;SDS011;26951;47.338;9.196;2023-01-29T04:02:25;22.17;;;13.60;;
41219;SDS011;26951;47.338;9.196;2023-01-29T04:05:16;22.00;;;13.15;;
41219;SDS011;26951;47.338;9.196;2023-01-29T04:08:16;22.17;;;12.45;;
41219;SDS011;26951;47.338;9.196;2023-01-29T04:11:09;23.95;;;13.95;;
41219;SDS011;26951;47.338;9.196;2023-01-29T04:13:57;27.10;;;14.60;;
41219;SDS011;26951;47.338;9.196;2023-01-29T04:16:43;25.17;;;14.15;;
41219;SDS011;26951;47.338;9.196;2023-01-29T04:19:33;28.10;;;15.52;;
41219;SDS011;26951;47.338;9.196;2023-01-29T04:22:19;24.85;;;14.27;;
41219;SDS011;26951;47.338;9.196;2023-01-29T04:25:09;23.38;;;13.93;;
41219;SDS011;26951;47.338;9.196;2023-01-29T04:28:06;23.92;;;13.43;;
41219;SDS011;26951;47.338;9.196;2023-01-29T04:31:05;20.70;;;12.18;;
41219;SDS011;26951;47.338;9.196;2023-01-29T04:34:03;23.25;;;12.77;;
41219;SDS011;26951;47.338;9.196;2023-01-29T04:37:01;24.63;;;13.45;;
41219;SDS011;26951;47.338;9.196;2023-01-29T04:39:53;27.38;;;14.95;;
41219;SDS011;26951;47.338;9.196;2023-01-29T04:42:54;29.30;;;16.40;;
41219;SDS011;26951;47.338;9.196;2023-01-29T04:46:07;22.65;;;14.13;;
41219;SDS011;26951;47.338;9.196;2023-01-29T04:52:07;21.90;;;13.07;;
41219;SDS011;26951;47.338;9.196;2023-01-29T04:55:08;24.23;;;13.20;;
41219;SDS011;26951;47.338;9.196;2023-01-29T04:58:38;21.50;;;13.65;;
41219;SDS011;26951;47.338;9.196;2023-01-29T05:01:26;18.75;;;12.02;;
41219;SDS011;26951;47.338;9.196;2023-01-29T05:04:13;21.30;;;12.52;;
41219;SDS011;26951;47.338;9.196;2023-01-29T05:07:02;24.83;;;13.40;;
41219;SDS011;26951;47.338;9.196;2023-01-29T05:09:49;21.05;;;12.55;;
41219;SDS011;26951;47.338;9.196;2023-01-29T05:12:34;18.33;;;11.48;;
41219;SDS011;26951;47.338;9.196;2023-01-29T05:15:25;21.20;;;12.30;;
41219;SDS011;26951;47.338;9.196;2023-01-29T05:18:19;19.42;;;11.70;;
41219;SDS011;26951;47.338;9.196;2023-01-29T05:21:04;21.95;;;13.63;;
41219;SDS011;26951;47.338;9.196;2023-01-29T05:24:10;23.83;;;13.93;;
41219;SDS011;26951;47.338;9.196;2023-01-29T05:27:02;20.85;;;12.90;;
41219;SDS011;26951;47.338;9.196;2023-01-29T05:30:06;19.80;;;11.30;;
41219;SDS011;26951;47.338;9.196;2023-01-29T05:32:51;21.77;;;12.52;;
41219;SDS011;26951;47.338;9.196;2023-01-29T05:35:35;20.50;;;12.68;;
41219;SDS011;26951;47.338;9.196;2023-01-29T05:38:20;23.23;;;13.18;;
41219;SDS011;26951;47.338;9.196;2023-01-29T05:41:05;20.13;;;12.65;;
41219;SDS011;26951;47.338;9.196;2023-01-29T05:43:49;22.50;;;12.40;;
41219;SDS011;26951;47.338;9.196;2023-01-29T05:46:33;20.02;;;12.75;;
41219;SDS011;26951;47.338;9.196;2023-01-29T05:49:17;22.98;;;12.98;;
41219;SDS011;26951;47.338;9.196;2023-01-29T05:52:03;20.45;;;12.35;;
41219;SDS011;26951;47.338;9.196;2023-01-29T05:54:47;24.02;;;13.52;;
41219;SDS011;26951;47.338;9.196;2023-01-29T05:57:31;24.88;;;13.32;;
41219;SDS011;26951;47.338;9.196;2023-01-29T06:00:16;23.15;;;13.60;;
41219;SDS011;26951;47.338;9.196;2023-01-29T06:03:00;23.92;;;13.13;;
41219;SDS011;26951;47.338;9.196;2023-01-29T06:05:44;24.35;;;12.98;;
41219;SDS011;26951;47.338;9.196;2023-01-29T06:08:28;19.50;;;11.98;;
41219;SDS011;26951;47.338;9.196;2023-01-29T06:11:13;20.48;;;12.63;;
41219;SDS011;26951;47.338;9.196;2023-01-29T06:14:00;24.10;;;13.95;;
41219;SDS011;26951;47.338;9.196;2023-01-29T06:16:45;23.95;;;14.20;;
41219;SDS011;26951;47.338;9.196;2023-01-29T06:19:29;23.75;;;13.88;;
41219;SDS011;26951;47.338;9.196;2023-01-29T06:22:13;22.00;;;12.65;;
41219;SDS011;26951;47.338;9.196;2023-01-29T06:24:58;20.75;;;13.18;;
41219;SDS011;26951;47.338;9.196;2023-01-29T06:27:42;22.20;;;13.07;;
41219;SDS011;26951;47.338;9.196;2023-01-29T06:30:26;24.58;;;13.38;;
41219;SDS011;26951;47.338;9.196;2023-01-29T06:33:10;22.73;;;13.20;;
41219;SDS011;26951;47.338;9.196;2023-01-29T06:35:58;25.77;;;15.38;;
41219;SDS011;26951;47.338;9.196;2023-01-29T06:38:43;26.92;;;15.85;;
41219;SDS011;26951;47.338;9.196;2023-01-29T06:41:27;22.42;;;13.90;;
41219;SDS011;26951;47.338;9.196;2023-01-29T06:44:12;28.60;;;15.18;;
41219;SDS011;26951;47.338;9.196;2023-01-29T06:46:56;22.65;;;14.57;;
41219;SDS011;26951;47.338;9.196;2023-01-29T06:49:40;26.05;;;16.13;;
41219;SDS011;26951;47.338;9.196;2023-01-29T06:52:27;24.40;;;14.38;;
41219;SDS011;26951;47.338;9.196;2023-01-29T06:55:11;23.30;;;13.48;;
41219;SDS011;26951;47.338;9.196;2023-01-29T06:57:56;25.33;;;14.60;;
41219;SDS011;26951;47.338;9.196;2023-01-29T07:00:40;24.42;;;13.38;;
41219;SDS011;26951;47.338;9.196;2023-01-29T07:03:24;27.00;;;14.48;;
41219;SDS011;26951;47.338;9.196;2023-01-29T07:06:08;22.55;;;14.55;;
41219;SDS011;26951;47.338;9.196;2023-01-29T07:08:53;24.27;;;14.57;;
41219;SDS011;26951;47.338;9.196;2023-01-29T07:11:37;23.90;;;14.85;;
41219;SDS011;26951;47.338;9.196;2023-01-29T07:14:21;21.65;;;13.05;;
41219;SDS011;26951;47.338;9.196;2023-01-29T07:17:05;24.42;;;14.15;;
41219;SDS011;26951;47.338;9.196;2023-01-29T07:19:49;27.00;;;15.18;;
41219;SDS011;26951;47.338;9.196;2023-01-29T07:22:34;22.63;;;13.85;;
41219;SDS011;26951;47.338;9.196;2023-01-29T07:25:19;24.23;;;14.02;;
41219;SDS011;26951;47.338;9.196;2023-01-29T07:28:04;22.85;;;13.73;;
41219;SDS011;26951;47.338;9.196;2023-01-29T07:30:48;26.00;;;15.35;;
41219;SDS011;26951;47.338;9.196;2023-01-29T07:33:33;24.40;;;13.93;;
41219;SDS011;26951;47.338;9.196;2023-01-29T07:36:18;24.42;;;13.93;;
41219;SDS011;26951;47.338;9.196;2023-01-29T07:39:02;25.92;;;13.95;;
41219;SDS011;26951;47.338;9.196;2023-01-29T07:41:46;24.67;;;13.68;;
41219;SDS011;26951;47.338;9.196;2023-01-29T07:44:30;26.48;;;14.05;;
41219;SDS011;26951;47.338;9.196;2023-01-29T07:47:14;23.73;;;13.55;;
41219;SDS011;26951;47.338;9.196;2023-01-29T07:49:58;26.55;;;14.10;;
41219;SDS011;26951;47.338;9.196;2023-01-29T07:52:43;25.38;;;14.07;;
41219;SDS011;26951;47.338;9.196;2023-01-29T07:55:27;24.55;;;15.15;;
41219;SDS011;26951;47.338;9.196;2023-01-29T07:58:12;25.42;;;14.85;;
41219;SDS011;26951;47.338;9.196;2023-01-29T08:00:56;25.67;;;14.88;;
41219;SDS011;26951;47.338;9.196;2023-01-29T08:03:40;25.02;;;14.65;;
41219;SDS011;26951;47.338;9.196;2023-01-29T08:06:24;26.00;;;14.57;;
41219;SDS011;26951;47.338;9.196;2023-01-29T08:09:09;27.08;;;15.80;;
41219;SDS011;26951;47.338;9.196;2023-01-29T08:11:53;26.38;;;15.70;;
41219;SDS011;26951;47.338;9.196;2023-01-29T08:14:37;23.65;;;14.65;;
41219;SDS011;26951;47.338;9.196;2023-01-29T08:17:22;23.60;;;14.77;;
41219;SDS011;26951;47.338;9.196;2023-01-29T08:20:06;27.13;;;15.60;;
41219;SDS011;26951;47.338;9.196;2023-01-29T08:22:57;28.02;;;15.88;;
41219;SDS011;26951;47.338;9.196;2023-01-29T08:25:46;28.10;;;16.92;;
41219;SDS011;26951;47.338;9.196;2023-01-29T08:28:30;27.98;;;15.63;;
41219;SDS011;26951;47.338;9.196;2023-01-29T08:31:15;25.02;;;14.52;;
41219;SDS011;26951;47.338;9.196;2023-01-29T08:34:02;28.02;;;16.15;;
41219;SDS011;26951;47.338;9.196;2023-01-29T08:36:46;25.52;;;15.10;;
41219;SDS011;26951;47.338;9.196;2023-01-29T08:39:30;25.65;;;15.07;;
41219;SDS011;26951;47.338;9.196;2023-01-29T08:42:14;23.20;;;13.50;;
41219;SDS011;26951;47.338;9.196;2023-01-29T08:44:58;24.92;;;14.63;;
41219;SDS011;26951;47.338;9.196;2023-01-29T08:47:46;25.55;;;15.20;;
41219;SDS011;26951;47.338;9.196;2023-01-29T08:50:31;24.40;;;15.55;;
41219;SDS011;26951;47.338;9.196;2023-01-29T08:56:06;24.52;;;13.10;;
41219;SDS011;26951;47.338;9.196;2023-01-29T08:58:51;27.05;;;14.02;;
41219;SDS011;26951;47.338;9.196;2023-01-29T09:01:35;27.10;;;14.98;;
41219;SDS011;26951;47.338;9.196;2023-01-29T09:04:19;22.85;;;13.30;;
41219;SDS011;26951;47.338;9.196;2023-01-29T09:07:04;24.77;;;14.30;;
41219;SDS011;26951;47.338;9.196;2023-01-29T09:09:48;23.05;;;13.20;;
41219;SDS011;26951;47.338;9.196;2023-01-29T09:12:32;23.13;;;13.55;;
41219;SDS011;26951;47.338;9.196;2023-01-29T09:15:17;25.65;;;15.68;;
41219;SDS011;26951;47.338;9.196;2023-01-29T09:18:02;21.98;;;14.02;;
41219;SDS011;26951;47.338;9.196;2023-01-29T09:20:47;22.13;;;14.38;;
41219;SDS011;26951;47.338;9.196;2023-01-29T09:23:31;20.65;;;13.00;;
41219;SDS011;26951;47.338;9.196;2023-01-29T09:26:15;21.30;;;13.20;;
41219;SDS011;26951;47.338;9.196;2023-01-29T09:28:59;23.25;;;13.57;;
41219;SDS011;26951;47.338;9.196;2023-01-29T09:31:43;21.75;;;13.55;;
41219;SDS011;26951;47.338;9.196;2023-01-29T09:34:27;16.52;;;10.65;;
41219;SDS011;26951;47.338;9.196;2023-01-29T09:37:12;17.75;;;10.80;;
41219;SDS011;26951;47.338;9.196;2023-01-29T09:39:56;18.30;;;11.45;;
41219;SDS011;26951;47.338;9.196;2023-01-29T09:42:42;21.33;;;13.23;;
41219;SDS011;26951;47.338;9.196;2023-01-29T09:45:31;19.15;;;12.90;;
41219;SDS011;26951;47.338;9.196;2023-01-29T09:48:16;20.38;;;12.18;;
41219;SDS011;26951;47.338;9.196;2023-01-29T09:51:04;19.67;;;12.05;;
41219;SDS011;26951;47.338;9.196;2023-01-29T09:54:07;20.88;;;12.68;;
41219;SDS011;26951;47.338;9.196;2023-01-29T09:56:57;17.08;;;11.02;;
41219;SDS011;26951;47.338;9.196;2023-01-29T09:59:41;19.27;;;11.90;;
41219;SDS011;26951;47.338;9.196;2023-01-29T10:02:39;17.85;;;11.50;;
41219;SDS011;26951;47.338;9.196;2023-01-29T10:12:01;22.63;;;14.13;;
41219;SDS011;26951;47.338;9.196;2023-01-29T10:15:03;20.10;;;12.68;;
41219;SDS011;26951;47.338;9.196;2023-01-29T10:20:52;17.30;;;11.45;;
41219;SDS011;26951;47.338;9.196;2023-01-29T10:24:09;18.05;;;11.18;;
41219;SDS011;26951;47.338;9.196;2023-01-29T10:26:58;16.42;;;10.63;;
41219;SDS011;26951;47.338;9.196;2023-01-29T10:32:30;20.03;;;12.13;;
41219;SDS011;26951;47.338;9.196;2023-01-29T10:35:19;18.30;;;11.77;;
41219;SDS011;26951;47.338;9.196;2023-01-29T10:56:53;18.25;;;12.50;;
41219;SDS011;26951;47.338;9.196;2023-01-29T11:00:01;18.48;;;11.80;;
41219;SDS011;26951;47.338;9.196;2023-01-29T11:02:55;19.60;;;13.30;;
41219;SDS011;26951;47.338;9.196;2023-01-29T11:05:46;17.30;;;11.20;;
41219;SDS011;26951;47.338;9.196;2023-01-29T11:08:53;19.13;;;12.63;;
41219;SDS011;26951;47.338;9.196;2023-01-29T11:12:15;15.93;;;10.52;;
41219;SDS011;26951;47.338;9.196;2023-01-29T11:15:06;21.97;;;12.87;;
41219;SDS011;26951;47.338;9.196;2023-01-29T11:23:45;20.00;;;11.30;;
41219;SDS011;26951;47.338;9.196;2023-01-29T11:26:30;20.23;;;14.07;;
41219;SDS011;26951;47.338;9.196;2023-01-29T11:38:05;18.13;;;12.32;;
41219;SDS011;26951;47.338;9.196;2023-01-29T11:41:14;18.98;;;12.55;;
41219;SDS011;26951;47.338;9.196;2023-01-29T11:44:01;19.40;;;12.18;;
41219;SDS011;26951;47.338;9.196;2023-01-29T11:47:46;20.40;;;12.73;;
41219;SDS011;26951;47.338;9.196;2023-01-29T11:50:16;16.42;;;10.98;;
41219;SDS011;26951;47.338;9.196;2023-01-29T11:53:04;18.48;;;12.63;;
41219;SDS011;26951;47.338;9.196;2023-01-29T11:55:50;22.02;;;13.30;;
41219;SDS011;26951;47.338;9.196;2023-01-29T11:58:34;22.08;;;14.25;;
41219;SDS011;26951;47.338;9.196;2023-01-29T12:01:22;25.77;;;15.23;;
41219;SDS011;26951;47.338;9.196;2023-01-29T12:04:20;23.45;;;14.93;;
41219;SDS011;26951;47.338;9.196;2023-01-29T12:07:10;24.45;;;14.88;;
41219;SDS011;26951;47.338;9.196;2023-01-29T12:10:00;26.27;;;14.70;;
41219;SDS011;26951;47.338;9.196;2023-01-29T12:12:46;24.30;;;15.40;;
41219;SDS011;26951;47.338;9.196;2023-01-29T12:15:31;21.63;;;14.00;;
41219;SDS011;26951;47.338;9.196;2023-01-29T12:21:32;22.60;;;14.47;;
41219;SDS011;26951;47.338;9.196;2023-01-29T12:30:27;22.45;;;16.67;;
41219;SDS011;26951;47.338;9.196;2023-01-29T12:33:23;22.65;;;14.38;;
41219;SDS011;26951;47.338;9.196;2023-01-29T12:36:18;23.27;;;14.02;;
41219;SDS011;26951;47.338;9.196;2023-01-29T12:39:09;20.45;;;13.20;;
41219;SDS011;26951;47.338;9.196;2023-01-29T12:42:03;22.55;;;14.13;;
41219;SDS011;26951;47.338;9.196;2023-01-29T12:45:03;21.92;;;14.20;;
41219;SDS011;26951;47.338;9.196;2023-01-29T12:47:54;21.30;;;13.60;;
41219;SDS011;26951;47.338;9.196;2023-01-29T12:50:43;21.45;;;13.32;;
41219;SDS011;26951;47.338;9.196;2023-01-29T12:53:30;21.58;;;13.63;;
41219;SDS011;26951;47.338;9.196;2023-01-29T12:56:44;20.23;;;13.82;;
41219;SDS011;26951;47.338;9.196;2023-01-29T12:59:42;25.13;;;14.00;;
41219;SDS011;26951;47.338;9.196;2023-01-29T13:02:31;18.83;;;12.30;;
41219;SDS011;26951;47.338;9.196;2023-01-29T13:05:28;20.65;;;12.77;;
41219;SDS011;26951;47.338;9.196;2023-01-29T13:08:25;21.08;;;13.55;;
41219;SDS011;26951;47.338;9.196;2023-01-29T13:11:21;20.17;;;13.75;;
41219;SDS011;26951;47.338;9.196;2023-01-29T13:17:11;24.15;;;15.13;;
41219;SDS011;26951;47.338;9.196;2023-01-29T13:19:58;19.92;;;13.35;;
41219;SDS011;26951;47.338;9.196;2023-01-29T13:22:47;23.95;;;13.52;;
41219;SDS011;26951;47.338;9.196;2023-01-29T13:25:35;20.35;;;12.02;;
41219;SDS011;26951;47.338;9.196;2023-01-29T13:28:20;19.35;;;11.73;;
41219;SDS011;26951;47.338;9.196;2023-01-29T13:34:18;21.65;;;13.80;;
41219;SDS011;26951;47.338;9.196;2023-01-29T13:37:11;19.52;;;13.02;;
41219;SDS011;26951;47.338;9.196;2023-01-29T13:40:17;19.25;;;12.70;;
41219;SDS011;26951;47.338;9.196;2023-01-29T13:43:04;20.02;;;13.55;;
41219;SDS011;26951;47.338;9.196;2023-01-29T13:45:50;21.15;;;13.88;;
41219;SDS011;26951;47.338;9.196;2023-01-29T13:48:40;23.25;;;14.05;;
41219;SDS011;26951;47.338;9.196;2023-01-29T13:51:29;24.00;;;13.90;;
41219;SDS011;26951;47.338;9.196;2023-01-29T13:54:19;22.13;;;14.18;;
41219;SDS011;26951;47.338;9.196;2023-01-29T13:57:08;28.85;;;18.20;;
41219;SDS011;26951;47.338;9.196;2023-01-29T14:06:07;18.80;;;12.77;;
41219;SDS011;26951;47.338;9.196;2023-01-29T14:08:51;18.23;;;12.32;;
41219;SDS011;26951;47.338;9.196;2023-01-29T14:11:35;21.77;;;13.95;;
41219;SDS011;26951;47.338;9.196;2023-01-29T14:17:31;20.80;;;13.57;;
41219;SDS011;26951;47.338;9.196;2023-01-29T14:20:17;18.92;;;12.80;;
41219;SDS011;26951;47.338;9.196;2023-01-29T14:23:03;21.98;;;12.32;;
41219;SDS011;26951;47.338;9.196;2023-01-29T14:25:48;20.33;;;13.63;;
41219;SDS011;26951;47.338;9.196;2023-01-29T14:28:33;22.02;;;12.32;;
41219;SDS011;26951;47.338;9.196;2023-01-29T14:32:19;18.58;;;12.57;;
41219;SDS011;26951;47.338;9.196;2023-01-29T14:35:01;17.27;;;12.25;;
41219;SDS011;26951;47.338;9.196;2023-01-29T14:37:48;21.73;;;13.75;;
41219;SDS011;26951;47.338;9.196;2023-01-29T14:40:34;20.17;;;12.55;;
41219;SDS011;26951;47.338;9.196;2023-01-29T14:43:19;19.58;;;11.98;;
41219;SDS011;26951;47.338;9.196;2023-01-29T14:49:46;21.13;;;12.82;;
41219;SDS011;26951;47.338;9.196;2023-01-29T14:52:39;22.38;;;12.93;;
41219;SDS011;26951;47.338;9.196;2023-01-29T14:55:29;18.83;;;11.93;;
41219;SDS011;26951;47.338;9.196;2023-01-29T15:01:32;22.05;;;13.00;;
41219;SDS011;26951;47.338;9.196;2023-01-29T15:04:26;19.02;;;12.93;;
41219;SDS011;26951;47.338;9.196;2023-01-29T15:07:33;20.40;;;12.40;;
41219;SDS011;26951;47.338;9.196;2023-01-29T15:10:28;22.92;;;12.38;;
41219;SDS011;26951;47.338;9.196;2023-01-29T15:13:37;22.52;;;13.45;;
41219;SDS011;26951;47.338;9.196;2023-01-29T15:16:31;21.58;;;13.73;;
41219;SDS011;26951;47.338;9.196;2023-01-29T15:19:25;19.35;;;11.90;;
41219;SDS011;26951;47.338;9.196;2023-01-29T15:22:16;19.58;;;12.98;;
41219;SDS011;26951;47.338;9.196;2023-01-29T15:25:03;20.30;;;12.40;;
41219;SDS011;26951;47.338;9.196;2023-01-29T15:27:57;22.10;;;13.37;;
41219;SDS011;26951;47.338;9.196;2023-01-29T15:30:42;18.33;;;12.50;;
41219;SDS011;26951;47.338;9.196;2023-01-29T15:33:27;19.63;;;12.23;;
41219;SDS011;26951;47.338;9.196;2023-01-29T15:36:19;19.75;;;12.45;;
41219;SDS011;26951;47.338;9.196;2023-01-29T15:39:17;20.08;;;12.70;;
41219;SDS011;26951;47.338;9.196;2023-01-29T15:42:22;21.60;;;13.23;;
41219;SDS011;26951;47.338;9.196;2023-01-29T15:45:29;21.73;;;12.50;;
41219;SDS011;26951;47.338;9.196;2023-01-29T15:48:18;20.65;;;12.82;;
41219;SDS011;26951;47.338;9.196;2023-01-29T15:51:06;18.77;;;12.40;;
41219;SDS011;26951;47.338;9.196;2023-01-29T15:56:38;22.55;;;13.80;;
41219;SDS011;26951;47.338;9.196;2023-01-29T15:59:26;23.88;;;14.60;;
41219;SDS011;26951;47.338;9.196;2023-01-29T16:02:17;23.70;;;14.43;;
41219;SDS011;26951;47.338;9.196;2023-01-29T16:05:30;20.80;;;12.45;;
41219;SDS011;26951;47.338;9.196;2023-01-29T16:08:15;19.15;;;13.05;;
41219;SDS011;26951;47.338;9.196;2023-01-29T16:11:04;19.77;;;11.80;;
41219;SDS011;26951;47.338;9.196;2023-01-29T16:13:49;22.75;;;12.77;;
41219;SDS011;26951;47.338;9.196;2023-01-29T16:16:34;19.52;;;11.77;;
41219;SDS011;26951;47.338;9.196;2023-01-29T16:19:19;23.23;;;13.85;;
41219;SDS011;26951;47.338;9.196;2023-01-29T16:22:05;19.55;;;12.48;;
41219;SDS011;26951;47.338;9.196;2023-01-29T16:24:51;18.27;;;12.18;;
41219;SDS011;26951;47.338;9.196;2023-01-29T16:27:37;17.38;;;10.60;;
41219;SDS011;26951;47.338;9.196;2023-01-29T16:30:25;21.58;;;12.23;;
41219;SDS011;26951;47.338;9.196;2023-01-29T16:33:12;20.08;;;12.90;;
41219;SDS011;26951;47.338;9.196;2023-01-29T16:35:58;18.73;;;11.38;;
41219;SDS011;26951;47.338;9.196;2023-01-29T16:38:44;21.30;;;12.68;;
41219;SDS011;26951;47.338;9.196;2023-01-29T16:41:35;20.17;;;12.18;;
41219;SDS011;26951;47.338;9.196;2023-01-29T16:47:09;24.52;;;13.35;;
41219;SDS011;26951;47.338;9.196;2023-01-29T16:49:58;18.02;;;10.73;;
41219;SDS011;26951;47.338;9.196;2023-01-29T16:52:54;20.05;;;12.10;;
41219;SDS011;26951;47.338;9.196;2023-01-29T16:56:00;16.75;;;10.60;;
41219;SDS011;26951;47.338;9.196;2023-01-29T16:58:51;20.20;;;11.00;;
41219;SDS011;26951;47.338;9.196;2023-01-29T17:01:37;18.08;;;11.10;;
41219;SDS011;26951;47.338;9.196;2023-01-29T17:04:21;16.48;;;10.23;;
41219;SDS011;26951;47.338;9.196;2023-01-29T17:07:05;21.77;;;11.88;;
41219;SDS011;26951;47.338;9.196;2023-01-29T17:10:04;21.35;;;12.63;;
41219;SDS011;26951;47.338;9.196;2023-01-29T17:12:52;17.80;;;11.57;;
41219;SDS011;26951;47.338;9.196;2023-01-29T17:15:44;19.75;;;11.57;;
41219;SDS011;26951;47.338;9.196;2023-01-29T17:18:29;18.88;;;11.63;;
41219;SDS011;26951;47.338;9.196;2023-01-29T17:21:13;18.98;;;11.90;;
41219;SDS011;26951;47.338;9.196;2023-01-29T17:23:57;21.00;;;13.13;;
41219;SDS011;26951;47.338;9.196;2023-01-29T17:26:42;22.10;;;12.98;;
41219;SDS011;26951;47.338;9.196;2023-01-29T17:29:27;17.73;;;11.57;;
41219;SDS011;26951;47.338;9.196;2023-01-29T17:32:14;20.33;;;12.02;;
41219;SDS011;26951;47.338;9.196;2023-01-29T17:35:01;22.13;;;13.05;;
41219;SDS011;26951;47.338;9.196;2023-01-29T17:37:46;22.33;;;11.77;;
41219;SDS011;26951;47.338;9.196;2023-01-29T17:40:32;21.75;;;12.05;;
41219;SDS011;26951;47.338;9.196;2023-01-29T17:43:21;21.38;;;13.57;;
41219;SDS011;26951;47.338;9.196;2023-01-29T17:46:08;22.67;;;12.57;;
41219;SDS011;26951;47.338;9.196;2023-01-29T17:48:56;20.52;;;11.18;;
41219;SDS011;26951;47.338;9.196;2023-01-29T17:51:41;19.48;;;11.93;;
41219;SDS011;26951;47.338;9.196;2023-01-29T17:54:25;22.00;;;12.23;;
41219;SDS011;26951;47.338;9.196;2023-01-29T17:57:10;19.73;;;11.32;;
41219;SDS011;26951;47.338;9.196;2023-01-29T17:59:57;23.33;;;13.35;;
41219;SDS011;26951;47.338;9.196;2023-01-29T18:02:41;20.00;;;12.70;;
41219;SDS011;26951;47.338;9.196;2023-01-29T18:05:25;23.48;;;13.90;;
41219;SDS011;26951;47.338;9.196;2023-01-29T18:08:13;25.80;;;14.20;;
41219;SDS011;26951;47.338;9.196;2023-01-29T18:11:00;21.90;;;12.32;;
41219;SDS011;26951;47.338;9.196;2023-01-29T18:13:44;18.95;;;12.45;;
41219;SDS011;26951;47.338;9.196;2023-01-29T18:16:28;20.77;;;12.93;;
41219;SDS011;26951;47.338;9.196;2023-01-29T18:19:20;22.50;;;12.63;;
41219;SDS011;26951;47.338;9.196;2023-01-29T18:22:05;29.02;;;14.60;;
41219;SDS011;26951;47.338;9.196;2023-01-29T18:24:49;24.98;;;13.38;;
41219;SDS011;26951;47.338;9.196;2023-01-29T18:27:33;25.92;;;14.63;;